createdAt,value
2018-06-25T00:00:04.720Z,16.00
2018-06-25T00:01:04.790Z,15.99
2018-06-25T00:02:04.678Z,15.99
2018-06-25T00:03:04.701Z,15.96
2018-06-25T00:04:04.631Z,15.92
2018-06-25T00:05:04.718Z,15.88
2018-06-25T00:06:04.587Z,15.93
2018-06-25T00:07:04.637Z,15.97
2018-06-25T00:08:04.542Z,15.94
2018-06-25T00:09:04.541Z,15.94
2018-06-25T00:10:04.502Z,15.89
2018-06-25T00:11:04.554Z,15.94
2018-06-25T00:12:04.459Z,15.92
2018-06-25T00:13:04.465Z,15.88
2018-06-25T00:14:04.409Z,15.94
2018-06-25T00:15:04.492Z,15.93
2018-06-25T00:16:04.362Z,15.92
2018-06-25T00:17:04.390Z,15.93
2018-06-25T00:18:04.319Z,16.01
2018-06-25T00:19:04.408Z,16.00
2018-06-25T00:20:04.271Z,15.97
2018-06-25T00:21:04.318Z,15.96
2018-06-25T00:22:04.223Z,15.93
2018-06-25T00:23:04.227Z,15.99
2018-06-25T00:24:04.213Z,15.93
2018-06-25T00:25:04.242Z,15.93
2018-06-25T00:26:04.141Z,16.04
2018-06-25T00:27:04.156Z,15.99
2018-06-25T00:28:04.097Z,15.97
2018-06-25T00:29:04.170Z,15.96
2018-06-25T00:30:04.058Z,16.00
2018-06-25T00:31:04.083Z,15.97
2018-06-25T00:32:04.008Z,15.88
2018-06-25T00:33:04.101Z,15.96
2018-06-25T00:34:03.958Z,15.92
2018-06-25T00:35:04.008Z,15.94
2018-06-25T00:36:03.919Z,15.94
2018-06-25T00:37:03.922Z,15.97
2018-06-25T00:38:03.872Z,15.93
2018-06-25T00:39:03.937Z,15.93
2018-06-25T00:40:03.829Z,15.89
2018-06-25T00:41:03.851Z,15.92
2018-06-25T00:42:03.781Z,15.92
2018-06-25T00:43:03.860Z,15.89
2018-06-25T00:44:03.733Z,15.94
2018-06-25T00:45:03.776Z,15.99
2018-06-25T00:46:03.690Z,15.96
2018-06-25T00:47:03.692Z,15.94
2018-06-25T00:48:03.644Z,15.86
2018-06-25T00:49:03.693Z,15.96
2018-06-25T00:50:03.600Z,15.94
2018-06-25T00:51:03.615Z,15.96
2018-06-25T00:52:03.562Z,15.99
2018-06-25T00:53:03.624Z,15.94
2018-06-25T00:54:03.514Z,15.94
2018-06-25T00:55:03.534Z,15.96
2018-06-25T00:56:03.469Z,15.92
2018-06-25T00:57:03.550Z,15.93
2018-06-25T00:58:03.424Z,15.89
2018-06-25T00:59:03.465Z,15.88
2018-06-25T01:00:03.381Z,15.86
2018-06-25T01:01:03.372Z,15.93
2018-06-25T01:02:03.329Z,15.86
2018-06-25T01:03:03.386Z,15.86
2018-06-25T01:04:03.291Z,15.86
2018-06-25T01:05:03.301Z,15.94
2018-06-25T01:06:03.246Z,15.96
2018-06-25T01:07:03.311Z,15.94
2018-06-25T01:08:03.197Z,15.86
2018-06-25T01:09:03.222Z,15.93
2018-06-25T01:10:03.149Z,15.94
2018-06-25T01:11:03.242Z,15.99
2018-06-25T01:12:03.102Z,16.00
2018-06-25T01:13:03.153Z,16.01
2018-06-25T01:14:03.066Z,15.85
2018-06-25T01:15:03.083Z,15.94
2018-06-25T01:16:03.012Z,15.88
2018-06-25T01:17:03.073Z,15.92
2018-06-25T01:18:02.968Z,15.88
2018-06-25T01:19:02.989Z,15.82
2018-06-25T01:20:02.923Z,15.88
2018-06-25T01:21:03.001Z,15.76
2018-06-25T01:22:02.885Z,15.79
2018-06-25T01:23:02.913Z,15.89
2018-06-25T01:24:02.837Z,15.84
2018-06-25T01:25:02.824Z,15.92
2018-06-25T01:26:02.786Z,15.86
2018-06-25T01:27:02.839Z,15.88
2018-06-25T01:28:02.742Z,15.86
2018-06-25T01:29:02.756Z,15.88
2018-06-25T01:30:02.697Z,15.86
2018-06-25T01:31:02.768Z,15.88
2018-06-25T01:32:02.649Z,15.89
2018-06-25T01:33:02.677Z,15.99
2018-06-25T01:34:02.609Z,15.92
2018-06-25T01:35:02.696Z,15.93
2018-06-25T01:36:02.562Z,15.88
2018-06-25T01:37:02.605Z,15.99
2018-06-25T01:38:02.521Z,15.94
2018-06-25T01:39:02.517Z,15.88
2018-06-25T01:40:02.473Z,15.88
2018-06-25T01:41:02.529Z,15.94
2018-06-25T01:42:02.429Z,15.96
2018-06-25T01:43:02.438Z,15.93
2018-06-25T01:44:02.384Z,15.88
2018-06-25T01:45:02.452Z,15.89
2018-06-25T01:46:02.339Z,15.82
2018-06-25T01:47:02.364Z,15.79
2018-06-25T01:48:02.295Z,15.86
2018-06-25T01:49:02.380Z,15.86
2018-06-25T01:50:02.249Z,15.82
2018-06-25T01:51:02.293Z,15.78
2018-06-25T01:52:02.202Z,15.78
2018-06-25T01:53:02.204Z,15.85
2018-06-25T01:54:02.157Z,15.84
2018-06-25T01:55:02.220Z,15.82
2018-06-25T01:56:02.111Z,15.84
2018-06-25T01:57:02.131Z,15.82
2018-06-25T01:58:02.065Z,15.92
2018-06-25T01:59:02.145Z,15.82
2018-06-25T02:00:02.020Z,15.84
2018-06-25T02:01:02.061Z,15.89
2018-06-25T02:02:01.981Z,15.78
2018-06-25T02:03:01.969Z,15.74
2018-06-25T02:04:01.932Z,15.82
2018-06-25T02:05:01.983Z,15.89
2018-06-25T02:06:01.888Z,15.89
2018-06-25T02:07:01.893Z,15.89
2018-06-25T02:08:01.844Z,15.89
2018-06-25T02:09:01.908Z,15.94
2018-06-25T02:10:01.797Z,15.94
2018-06-25T02:11:01.820Z,15.99
2018-06-25T02:12:01.752Z,15.92
2018-06-25T02:13:01.834Z,15.86
2018-06-25T02:14:01.706Z,15.93
2018-06-25T02:15:01.744Z,15.92
2018-06-25T02:16:01.660Z,15.88
2018-06-25T02:17:01.656Z,15.96
2018-06-25T02:18:01.617Z,15.97
2018-06-25T02:19:01.673Z,15.92
2018-06-25T02:20:01.572Z,15.93
2018-06-25T02:21:01.583Z,15.96
2018-06-25T02:22:01.523Z,15.96
2018-06-25T02:23:01.598Z,15.93
2018-06-25T02:24:01.478Z,15.94
2018-06-25T02:25:01.509Z,15.96
2018-06-25T02:26:01.436Z,15.93
2018-06-25T02:27:01.523Z,15.89
2018-06-25T02:28:01.391Z,15.97
2018-06-25T02:29:01.446Z,15.96
2018-06-25T02:30:01.352Z,15.88
2018-06-25T02:31:01.349Z,15.88
2018-06-25T02:32:01.319Z,15.99
2018-06-25T02:33:01.439Z,15.89
2018-06-25T02:34:01.256Z,15.94
2018-06-25T02:35:01.277Z,15.86
2018-06-25T02:36:01.208Z,15.84
2018-06-25T02:37:01.353Z,15.96
2018-06-25T02:38:01.168Z,15.86
2018-06-25T02:39:01.200Z,15.96
2018-06-25T02:40:01.120Z,15.92
2018-06-25T02:41:01.215Z,16.00
2018-06-25T02:42:01.078Z,15.97
2018-06-25T02:43:01.125Z,15.97
2018-06-25T02:44:01.031Z,15.93
2018-06-25T02:45:01.045Z,15.89
2018-06-25T02:46:00.987Z,15.79
2018-06-25T02:47:01.053Z,15.84
2018-06-25T02:48:00.943Z,15.76
2018-06-25T02:49:00.963Z,15.78
2018-06-25T02:50:00.894Z,15.79
2018-06-25T02:51:00.978Z,15.72
2018-06-25T02:52:00.853Z,15.75
2018-06-25T02:53:00.890Z,15.74
2018-06-25T02:54:00.806Z,15.81
2018-06-25T02:55:00.801Z,15.76
2018-06-25T02:56:00.764Z,15.75
2018-06-25T02:57:00.815Z,15.72
2018-06-25T02:58:00.713Z,15.75
2018-06-25T02:59:00.726Z,15.72
2018-06-25T03:00:00.673Z,15.75
2018-06-25T03:01:00.743Z,15.79
2018-06-25T03:02:00.641Z,15.79
2018-06-25T03:03:00.657Z,15.74
2018-06-25T03:04:00.578Z,15.81
2018-06-25T03:05:00.666Z,15.82
2018-06-25T03:06:00.540Z,15.84
2018-06-25T03:07:00.578Z,15.74
2018-06-25T03:08:00.496Z,15.70
2018-06-25T03:09:00.491Z,15.85
2018-06-25T03:10:00.446Z,15.78
2018-06-25T03:11:00.503Z,15.79
2018-06-25T03:12:00.415Z,15.76
2018-06-25T03:13:00.421Z,15.74
2018-06-25T03:14:00.355Z,15.75
2018-06-25T03:15:00.427Z,15.76
2018-06-25T03:16:00.314Z,15.78
2018-06-25T03:17:00.340Z,15.76
2018-06-25T03:18:00.266Z,15.64
2018-06-25T03:19:00.358Z,15.68
2018-06-25T03:20:00.218Z,15.76
2018-06-25T03:21:00.269Z,15.68
2018-06-25T03:22:00.176Z,15.63
2018-06-25T03:23:00.181Z,15.74
2018-06-25T03:24:00.129Z,15.75
2018-06-25T03:25:00.194Z,15.78
2018-06-25T03:26:00.136Z,15.76
2018-06-25T03:27:00.107Z,15.79
2018-06-25T03:28:00.038Z,15.81
2018-06-25T03:29:00.123Z,15.81
2018-06-25T03:29:59.994Z,15.82
2018-06-25T03:31:00.042Z,15.78
2018-06-25T03:31:59.954Z,15.84
2018-06-25T03:32:59.944Z,15.75
2018-06-25T03:33:59.902Z,15.76
2018-06-25T03:34:59.957Z,15.82
2018-06-25T03:35:59.856Z,15.85
2018-06-25T03:36:59.871Z,15.88
2018-06-25T03:37:59.812Z,15.68
2018-06-25T03:38:59.883Z,15.85
2018-06-25T03:39:59.770Z,15.76
2018-06-25T03:40:59.794Z,15.78
2018-06-25T03:41:59.731Z,15.75
2018-06-25T03:43:00.742Z,15.64
2018-06-25T03:43:59.676Z,15.68
2018-06-25T03:44:59.721Z,15.75
2018-06-25T03:45:59.640Z,15.64
2018-06-25T03:46:59.638Z,15.76
2018-06-25T03:47:59.578Z,15.79
2018-06-25T03:48:59.656Z,15.79
2018-06-25T03:49:59.541Z,15.85
2018-06-25T03:50:59.577Z,15.82
2018-06-25T03:51:59.497Z,15.79
2018-06-25T03:52:59.581Z,15.82
2018-06-25T03:53:59.452Z,15.76
2018-06-25T03:54:59.483Z,15.81
2018-06-25T03:55:59.405Z,15.82
2018-06-25T03:56:59.497Z,15.79
2018-06-25T03:57:59.363Z,15.79
2018-06-25T03:58:59.418Z,15.81
2018-06-25T03:59:59.321Z,15.85
2018-06-25T04:00:59.366Z,15.85
2018-06-25T04:01:59.273Z,15.75
2018-06-25T04:02:59.342Z,15.76
2018-06-25T04:03:59.226Z,15.75
2018-06-25T04:04:59.258Z,15.75
2018-06-25T04:05:59.181Z,15.78
2018-06-25T04:06:59.268Z,15.79
2018-06-25T04:07:59.142Z,15.76
2018-06-25T04:08:59.178Z,15.75
2018-06-25T04:09:59.087Z,15.66
2018-06-25T04:10:59.091Z,15.75
2018-06-25T04:11:59.063Z,15.74
2018-06-25T04:12:59.104Z,15.79
2018-06-25T04:13:59.000Z,15.76
2018-06-25T04:14:59.016Z,15.82
2018-06-25T04:15:58.957Z,15.75
2018-06-25T04:16:59.028Z,15.79
2018-06-25T04:17:58.912Z,15.76
2018-06-25T04:18:58.940Z,15.78
2018-06-25T04:19:58.861Z,15.75
2018-06-25T04:20:58.955Z,15.70
2018-06-25T04:21:58.859Z,15.75
2018-06-25T04:22:58.875Z,15.76
2018-06-25T04:23:58.771Z,15.75
2018-06-25T04:24:58.777Z,15.85
2018-06-25T04:25:58.728Z,15.81
2018-06-25T04:26:58.790Z,15.81
2018-06-25T04:27:58.684Z,15.76
2018-06-25T04:28:58.701Z,15.88
2018-06-25T04:29:58.638Z,15.92
2018-06-25T04:30:58.715Z,15.92
2018-06-25T04:31:58.596Z,15.82
2018-06-25T04:32:58.631Z,15.79
2018-06-25T04:33:58.545Z,15.85
2018-06-25T04:34:58.539Z,15.84
2018-06-25T04:35:58.503Z,15.89
2018-06-25T04:36:58.553Z,15.88
2018-06-25T04:37:58.460Z,15.84
2018-06-25T04:38:58.463Z,15.88
2018-06-25T04:39:58.413Z,15.89
2018-06-25T04:40:58.478Z,15.92
2018-06-25T04:41:58.366Z,15.84
2018-06-25T04:42:58.391Z,15.86
2018-06-25T04:43:58.321Z,15.92
2018-06-25T04:44:58.406Z,15.78
2018-06-25T04:45:58.277Z,15.79
2018-06-25T04:46:58.316Z,15.82
2018-06-25T04:47:58.232Z,15.75
2018-06-25T04:48:58.227Z,15.70
2018-06-25T04:49:58.196Z,15.79
2018-06-25T04:50:58.241Z,15.81
2018-06-25T04:51:58.160Z,15.72
2018-06-25T04:52:58.152Z,15.92
2018-06-25T04:53:58.095Z,15.68
2018-06-25T04:54:58.165Z,15.88
2018-06-25T04:55:58.050Z,15.81
2018-06-25T04:56:58.077Z,15.79
2018-06-25T04:57:58.001Z,15.72
2018-06-25T04:58:58.092Z,15.75
2018-06-25T04:59:57.960Z,15.78
2018-06-25T05:00:58.061Z,15.78
2018-06-25T05:01:57.920Z,15.78
2018-06-25T05:02:57.922Z,15.75
2018-06-25T05:03:57.879Z,15.84
2018-06-25T05:04:57.940Z,15.76
2018-06-25T05:05:57.838Z,15.85
2018-06-25T05:06:57.841Z,15.86
2018-06-25T05:07:57.780Z,15.86
2018-06-25T05:08:58.001Z,15.84
2018-06-25T05:09:57.732Z,15.99
2018-06-25T05:10:57.770Z,15.94
2018-06-25T05:11:57.678Z,16.01
2018-06-25T05:12:57.786Z,15.92
2018-06-25T05:13:57.653Z,15.94
2018-06-25T05:14:57.696Z,15.96
2018-06-25T05:15:57.607Z,15.96
2018-06-25T05:16:57.609Z,15.97
2018-06-25T05:17:57.566Z,15.93
2018-06-25T05:18:57.622Z,16.03
2018-06-25T05:19:57.525Z,16.00
2018-06-25T05:20:57.534Z,15.94
2018-06-25T05:21:57.460Z,15.96
2018-06-25T05:22:57.542Z,16.00
2018-06-25T05:23:57.417Z,16.03
2018-06-25T05:24:57.522Z,16.00
2018-06-25T05:25:57.366Z,15.99
2018-06-25T05:26:57.371Z,16.03
2018-06-25T05:27:57.349Z,16.16
2018-06-25T05:28:57.382Z,16.11
2018-06-25T05:29:57.282Z,16.20
2018-06-25T05:30:57.289Z,16.12
2018-06-25T05:31:57.248Z,16.09
2018-06-25T05:32:57.309Z,16.16
2018-06-25T05:33:57.192Z,16.16
2018-06-25T05:34:57.225Z,16.07
2018-06-25T05:35:57.143Z,16.11
2018-06-25T05:36:57.234Z,16.22
2018-06-25T05:37:57.103Z,16.20
2018-06-25T05:38:57.146Z,16.15
2018-06-25T05:39:57.055Z,16.18
2018-06-25T05:40:57.058Z,16.26
2018-06-25T05:41:57.024Z,16.27
2018-06-25T05:42:57.075Z,16.37
2018-06-25T05:43:56.969Z,16.38
2018-06-25T05:44:56.979Z,16.40
2018-06-25T05:45:56.931Z,16.40
2018-06-25T05:46:56.996Z,16.34
2018-06-25T05:47:56.879Z,16.35
2018-06-25T05:48:56.979Z,16.33
2018-06-25T05:49:56.832Z,16.31
2018-06-25T05:50:56.920Z,16.41
2018-06-25T05:51:56.789Z,16.42
2018-06-25T05:52:56.833Z,16.37
2018-06-25T05:53:56.743Z,16.42
2018-06-25T05:54:56.746Z,16.38
2018-06-25T05:55:56.704Z,16.49
2018-06-25T05:56:56.761Z,16.55
2018-06-25T05:57:56.657Z,16.65
2018-06-25T05:58:56.731Z,16.67
2018-06-25T05:59:56.613Z,16.67
2018-06-25T06:00:56.682Z,16.74
2018-06-25T06:01:56.574Z,16.75
2018-06-25T06:02:56.598Z,16.77
2018-06-25T06:03:56.522Z,16.75
2018-06-25T06:04:56.612Z,16.71
2018-06-25T06:05:56.482Z,16.63
2018-06-25T06:06:56.544Z,16.71
2018-06-25T06:07:56.433Z,16.67
2018-06-25T06:08:56.434Z,16.68
2018-06-25T06:09:56.395Z,16.56
2018-06-25T06:10:56.449Z,16.48
2018-06-25T06:11:56.343Z,16.55
2018-06-25T06:12:56.359Z,16.52
2018-06-25T06:13:56.332Z,16.59
2018-06-25T06:14:56.387Z,16.67
2018-06-25T06:15:56.265Z,16.67
2018-06-25T06:16:56.289Z,16.70
2018-06-25T06:17:56.213Z,16.65
2018-06-25T06:18:56.298Z,16.67
2018-06-25T06:19:56.174Z,16.60
2018-06-25T06:20:56.205Z,16.74
2018-06-25T06:21:56.127Z,16.68
2018-06-25T06:22:56.129Z,16.65
2018-06-25T06:23:56.080Z,16.65
2018-06-25T06:24:56.141Z,16.65
2018-06-25T06:25:56.034Z,16.75
2018-06-25T06:26:56.051Z,16.75
2018-06-25T06:27:55.997Z,16.78
2018-06-25T06:28:56.065Z,16.75
2018-06-25T06:29:55.947Z,16.83
2018-06-25T06:30:55.971Z,16.81
2018-06-25T06:31:55.945Z,16.89
2018-06-25T06:32:55.996Z,16.89
2018-06-25T06:33:55.874Z,16.89
2018-06-25T06:34:55.905Z,16.92
2018-06-25T06:35:55.813Z,17.07
2018-06-25T06:36:55.810Z,17.03
2018-06-25T06:37:55.776Z,17.11
2018-06-25T06:38:55.830Z,17.06
2018-06-25T06:39:55.736Z,17.13
2018-06-25T06:40:55.733Z,17.13
2018-06-25T06:41:55.683Z,17.14
2018-06-25T06:42:55.759Z,17.25
2018-06-25T06:43:55.636Z,17.10
2018-06-25T06:44:55.662Z,17.23
2018-06-25T06:45:55.593Z,17.26
2018-06-25T06:46:55.686Z,17.32
2018-06-25T06:47:55.548Z,17.28
2018-06-25T06:48:55.589Z,17.30
2018-06-25T06:49:55.508Z,17.41
2018-06-25T06:50:55.505Z,17.38
2018-06-25T06:51:55.458Z,17.44
2018-06-25T06:52:55.519Z,17.40
2018-06-25T06:53:55.414Z,17.38
2018-06-25T06:54:55.431Z,17.44
2018-06-25T06:55:55.378Z,17.48
2018-06-25T06:56:55.440Z,17.54
2018-06-25T06:57:55.331Z,17.55
2018-06-25T06:58:55.345Z,17.51
2018-06-25T06:59:55.289Z,17.51
2018-06-25T07:00:55.369Z,17.53
2018-06-25T07:01:55.260Z,17.57
2018-06-25T07:02:55.342Z,17.64
2018-06-25T07:03:55.191Z,17.64
2018-06-25T07:04:55.196Z,17.63
2018-06-25T07:05:55.157Z,17.73
2018-06-25T07:06:55.197Z,17.82
2018-06-25T07:07:55.114Z,17.94
2018-06-25T07:08:55.120Z,17.84
2018-06-25T07:09:55.070Z,17.95
2018-06-25T07:10:55.134Z,17.88
2018-06-25T07:11:55.025Z,17.94
2018-06-25T07:12:55.046Z,17.99
2018-06-25T07:13:54.986Z,18.09
2018-06-25T07:14:55.064Z,18.15
2018-06-25T07:15:54.939Z,18.15
2018-06-25T07:16:54.976Z,18.21
2018-06-25T07:17:54.899Z,18.25
2018-06-25T07:18:54.987Z,18.31
2018-06-25T07:19:54.860Z,18.29
2018-06-25T07:20:54.900Z,18.28
2018-06-25T07:21:54.818Z,18.27
2018-06-25T07:22:54.810Z,18.43
2018-06-25T07:23:54.771Z,18.44
2018-06-25T07:24:54.825Z,18.49
2018-06-25T07:25:54.726Z,18.52
2018-06-25T07:26:54.738Z,18.52
2018-06-25T07:27:54.684Z,18.49
2018-06-25T07:28:55.799Z,18.50
2018-06-25T07:29:54.649Z,18.47
2018-06-25T07:30:54.661Z,18.54
2018-06-25T07:31:54.622Z,18.50
2018-06-25T07:32:54.675Z,18.50
2018-06-25T07:33:54.561Z,18.49
2018-06-25T07:34:54.587Z,18.47
2018-06-25T07:35:54.516Z,18.57
2018-06-25T07:36:54.602Z,18.47
2018-06-25T07:37:54.471Z,18.46
2018-06-25T07:38:54.516Z,18.50
2018-06-25T07:39:54.434Z,18.47
2018-06-25T07:40:54.427Z,18.47
2018-06-25T07:41:54.393Z,18.43
2018-06-25T07:42:54.449Z,18.39
2018-06-25T07:43:54.341Z,18.49
2018-06-25T07:44:54.352Z,18.39
2018-06-25T07:45:54.304Z,18.47
2018-06-25T07:46:54.366Z,18.44
2018-06-25T07:47:54.262Z,18.40
2018-06-25T07:48:54.279Z,18.50
2018-06-25T07:49:54.224Z,18.58
2018-06-25T07:50:54.298Z,18.58
2018-06-25T07:51:54.187Z,18.52
2018-06-25T07:52:54.203Z,18.65
2018-06-25T07:53:54.138Z,18.65
2018-06-25T07:54:54.218Z,18.61
2018-06-25T07:55:54.094Z,18.59
2018-06-25T07:56:54.130Z,18.57
2018-06-25T07:57:54.053Z,18.57
2018-06-25T07:58:54.147Z,18.52
2018-06-25T07:59:54.012Z,18.49
2018-06-25T08:00:54.058Z,18.52
2018-06-25T08:01:53.972Z,18.46
2018-06-25T08:02:53.969Z,18.55
2018-06-25T08:03:53.929Z,18.64
2018-06-25T08:04:53.982Z,18.59
2018-06-25T08:05:53.886Z,18.61
2018-06-25T08:06:53.893Z,18.72
2018-06-25T08:07:53.847Z,18.72
2018-06-25T08:08:53.907Z,18.79
2018-06-25T08:09:53.869Z,18.82
2018-06-25T08:10:53.829Z,18.87
2018-06-25T08:11:53.760Z,18.87
2018-06-25T08:12:53.826Z,18.97
2018-06-25T08:13:53.711Z,19.14
2018-06-25T08:14:53.736Z,19.06
2018-06-25T08:15:53.679Z,19.18
2018-06-25T08:16:53.765Z,19.15
2018-06-25T08:17:53.631Z,19.23
2018-06-25T08:18:53.659Z,19.23
2018-06-25T08:19:53.594Z,19.28
2018-06-25T08:20:53.696Z,19.13
2018-06-25T08:21:53.547Z,19.13
2018-06-25T08:22:53.589Z,19.02
2018-06-25T08:23:53.509Z,18.97
2018-06-25T08:24:53.505Z,18.79
2018-06-25T08:25:53.468Z,18.80
2018-06-25T08:26:53.520Z,18.77
2018-06-25T08:27:53.435Z,18.90
2018-06-25T08:28:53.432Z,18.82
2018-06-25T08:29:53.459Z,19.05
2018-06-25T08:30:53.444Z,19.01
2018-06-25T08:31:53.345Z,19.13
2018-06-25T08:32:53.357Z,19.28
2018-06-25T08:33:53.404Z,19.18
2018-06-25T08:34:53.369Z,19.10
2018-06-25T08:35:53.276Z,19.10
2018-06-25T08:36:53.290Z,19.11
2018-06-25T08:37:53.223Z,19.14
2018-06-25T08:38:53.296Z,19.14
2018-06-25T08:39:53.180Z,19.15
2018-06-25T08:40:53.209Z,19.18
2018-06-25T08:41:53.139Z,19.14
2018-06-25T08:42:53.229Z,19.11
2018-06-25T08:43:53.098Z,19.25
2018-06-25T08:44:53.084Z,19.31
2018-06-25T08:45:53.093Z,19.29
2018-06-25T08:46:53.154Z,19.28
2018-06-25T08:47:53.016Z,19.31
2018-06-25T08:48:53.071Z,19.38
2018-06-25T08:49:52.980Z,19.55
2018-06-25T08:50:52.954Z,19.58
2018-06-25T08:51:53.003Z,19.73
2018-06-25T08:52:52.990Z,19.80
2018-06-25T08:53:52.896Z,19.87
2018-06-25T08:54:52.905Z,19.90
2018-06-25T08:55:52.853Z,19.93
2018-06-25T08:56:52.944Z,20.03
2018-06-25T08:57:52.812Z,20.05
2018-06-25T08:58:52.831Z,19.93
2018-06-25T08:59:52.780Z,20.09
2018-06-25T09:00:52.842Z,20.15
2018-06-25T09:01:52.731Z,20.20
2018-06-25T09:02:52.754Z,20.18
2018-06-25T09:03:52.689Z,20.25
2018-06-25T09:04:52.769Z,20.30
2018-06-25T09:05:52.654Z,20.39
2018-06-25T09:06:52.680Z,20.38
2018-06-25T09:07:52.615Z,20.46
2018-06-25T09:08:52.697Z,20.41
2018-06-25T09:09:52.596Z,20.42
2018-06-25T09:10:52.606Z,20.42
2018-06-25T09:11:52.531Z,20.62
2018-06-25T09:12:52.621Z,20.72
2018-06-25T09:13:52.496Z,20.87
2018-06-25T09:14:52.530Z,20.96
2018-06-25T09:15:52.452Z,21.04
2018-06-25T09:16:52.545Z,20.98
2018-06-25T09:17:52.410Z,20.86
2018-06-25T09:18:52.456Z,20.90
2018-06-25T09:19:52.374Z,20.95
2018-06-25T09:20:52.471Z,20.91
2018-06-25T09:21:52.338Z,20.89
2018-06-25T09:22:52.382Z,20.87
2018-06-25T09:23:52.297Z,20.84
2018-06-25T09:24:52.293Z,20.87
2018-06-25T09:25:52.265Z,20.81
2018-06-25T09:26:52.307Z,20.72
2018-06-25T09:27:52.294Z,20.74
2018-06-25T09:28:52.218Z,20.71
2018-06-25T09:29:52.179Z,20.56
2018-06-25T09:30:52.233Z,20.64
2018-06-25T09:31:52.143Z,20.66
2018-06-25T09:32:52.156Z,20.62
2018-06-25T09:33:52.102Z,20.56
2018-06-25T09:34:52.156Z,20.59
2018-06-25T09:35:52.072Z,20.74
2018-06-25T09:36:52.075Z,20.79
2018-06-25T09:37:52.026Z,20.95
2018-06-25T09:38:52.073Z,21.09
2018-06-25T09:39:51.995Z,21.20
2018-06-25T09:40:52.036Z,21.42
2018-06-25T09:41:51.950Z,21.71
2018-06-25T09:42:52.015Z,21.83
2018-06-25T09:43:51.912Z,22.07
2018-06-25T09:44:51.926Z,22.12
2018-06-25T09:45:51.884Z,21.97
2018-06-25T09:46:51.997Z,22.07
2018-06-25T09:47:51.887Z,22.01
2018-06-25T09:48:51.850Z,21.98
2018-06-25T09:49:51.800Z,21.75
2018-06-25T09:50:51.864Z,21.53
2018-06-25T09:51:51.765Z,21.69
2018-06-25T09:52:51.774Z,21.67
2018-06-25T09:53:51.724Z,21.71
2018-06-25T09:54:51.861Z,21.75
2018-06-25T09:55:51.690Z,21.75
2018-06-25T09:56:51.702Z,21.76
2018-06-25T09:57:51.654Z,21.79
2018-06-25T09:58:51.713Z,21.78
2018-06-25T09:59:51.613Z,21.81
2018-06-25T10:00:51.628Z,21.76
2018-06-25T10:01:51.576Z,21.76
2018-06-25T10:02:51.640Z,21.79
2018-06-25T10:03:51.541Z,21.83
2018-06-25T10:04:51.550Z,21.95
2018-06-25T10:05:51.510Z,22.01
2018-06-25T10:06:51.563Z,22.09
2018-06-25T10:07:51.469Z,22.25
2018-06-25T10:08:51.478Z,22.16
2018-06-25T10:09:51.427Z,22.04
2018-06-25T10:10:51.490Z,22.06
2018-06-25T10:11:51.395Z,21.94
2018-06-25T10:12:51.403Z,21.81
2018-06-25T10:13:51.355Z,21.75
2018-06-25T10:14:51.419Z,21.76
2018-06-25T10:15:51.319Z,21.66
2018-06-25T10:16:51.328Z,21.46
2018-06-25T10:17:51.290Z,21.34
2018-06-25T10:18:51.340Z,21.35
2018-06-25T10:19:51.272Z,21.36
2018-06-25T10:20:51.252Z,21.32
2018-06-25T10:21:51.214Z,21.30
2018-06-25T10:22:51.268Z,21.24
2018-06-25T10:23:51.171Z,21.20
2018-06-25T10:24:51.179Z,21.17
2018-06-25T10:25:51.140Z,21.06
2018-06-25T10:26:51.194Z,20.98
2018-06-25T10:27:51.096Z,20.95
2018-06-25T10:28:51.107Z,20.93
2018-06-25T10:29:51.060Z,20.98
2018-06-25T10:30:51.124Z,21.06
2018-06-25T10:31:51.025Z,21.09
2018-06-25T10:32:51.032Z,21.11
2018-06-25T10:33:50.996Z,21.23
2018-06-25T10:34:51.069Z,21.21
2018-06-25T10:35:50.950Z,21.21
2018-06-25T10:36:50.957Z,21.24
2018-06-25T10:37:50.914Z,21.45
2018-06-25T10:38:50.971Z,21.57
2018-06-25T10:39:50.874Z,21.60
2018-06-25T10:40:50.882Z,21.57
2018-06-25T10:41:50.843Z,21.79
2018-06-25T10:42:50.895Z,21.75
2018-06-25T10:43:50.799Z,21.78
2018-06-25T10:44:50.813Z,21.83
2018-06-25T10:45:50.767Z,21.82
2018-06-25T10:46:50.823Z,21.92
2018-06-25T10:47:50.725Z,21.75
2018-06-25T10:48:50.739Z,21.79
2018-06-25T10:49:50.694Z,21.90
2018-06-25T10:50:50.752Z,21.74
2018-06-25T10:51:50.760Z,21.79
2018-06-25T10:52:50.632Z,21.66
2018-06-25T10:53:50.670Z,21.59
2018-06-25T10:54:50.599Z,21.59
2018-06-25T10:55:50.686Z,21.57
2018-06-25T10:56:50.563Z,21.53
2018-06-25T10:57:50.597Z,21.57
2018-06-25T10:58:50.525Z,21.61
2018-06-25T10:59:50.708Z,21.66
2018-06-25T11:00:50.488Z,21.71
2018-06-25T11:01:50.527Z,21.72
2018-06-25T11:02:50.468Z,21.72
2018-06-25T11:03:50.535Z,21.76
2018-06-25T11:04:50.419Z,21.75
2018-06-25T11:05:50.569Z,21.71
2018-06-25T11:06:50.383Z,21.72
2018-06-25T11:07:50.555Z,21.69
2018-06-25T11:08:50.336Z,21.74
2018-06-25T11:09:50.477Z,21.78
2018-06-25T11:10:50.313Z,21.74
2018-06-25T11:11:50.390Z,21.71
2018-06-25T11:12:50.320Z,21.75
2018-06-25T11:13:50.404Z,21.82
2018-06-25T11:14:50.229Z,21.91
2018-06-25T11:15:50.319Z,21.85
2018-06-25T11:16:50.217Z,21.78
2018-06-25T11:17:50.248Z,21.74
2018-06-25T11:18:50.156Z,21.74
2018-06-25T11:19:50.243Z,21.71
2018-06-25T11:20:50.123Z,21.71
2018-06-25T11:21:50.252Z,21.71
2018-06-25T11:22:50.088Z,21.79
2018-06-25T11:23:50.163Z,21.69
2018-06-25T11:24:50.047Z,21.81
2018-06-25T11:25:50.181Z,21.64
2018-06-25T11:26:50.073Z,21.59
2018-06-25T11:27:50.134Z,21.60
2018-06-25T11:28:49.983Z,21.60
2018-06-25T11:29:50.113Z,21.51
2018-06-25T11:30:49.940Z,21.69
2018-06-25T11:31:50.058Z,21.69
2018-06-25T11:32:49.903Z,21.69
2018-06-25T11:33:50.035Z,21.75
2018-06-25T11:34:49.864Z,21.74
2018-06-25T11:35:49.963Z,21.72
2018-06-25T11:36:49.881Z,21.76
2018-06-25T11:37:49.957Z,21.67
2018-06-25T11:38:49.787Z,21.71
2018-06-25T11:39:49.972Z,21.69
2018-06-25T11:40:49.755Z,21.69
2018-06-25T11:41:49.931Z,21.71
2018-06-25T11:42:49.720Z,21.72
2018-06-25T11:43:49.795Z,21.67
2018-06-25T11:44:49.681Z,21.69
2018-06-25T11:45:49.806Z,21.74
2018-06-25T11:46:49.656Z,21.74
2018-06-25T11:47:49.719Z,21.79
2018-06-25T11:48:49.610Z,21.72
2018-06-25T11:49:49.732Z,21.79
2018-06-25T11:50:49.569Z,21.72
2018-06-25T11:51:49.717Z,21.81
2018-06-25T11:52:49.541Z,21.75
2018-06-25T11:53:50.685Z,21.74
2018-06-25T11:54:49.516Z,21.78
2018-06-25T11:55:49.707Z,21.75
2018-06-25T11:56:49.476Z,21.79
2018-06-25T11:57:49.583Z,21.75
2018-06-25T11:58:49.428Z,21.75
2018-06-25T11:59:49.597Z,21.74
2018-06-25T12:00:49.387Z,21.75
2018-06-25T12:01:49.426Z,21.79
2018-06-25T12:02:49.486Z,21.75
2018-06-25T12:03:49.523Z,21.78
2018-06-25T12:04:49.315Z,21.75
2018-06-25T12:05:49.529Z,21.75
2018-06-25T12:06:49.277Z,21.75
2018-06-25T12:07:49.463Z,21.75
2018-06-25T12:08:49.242Z,21.81
2018-06-25T12:09:49.259Z,21.92
2018-06-25T12:10:49.208Z,21.94
2018-06-25T12:11:49.273Z,21.94
2018-06-25T12:12:49.166Z,22.04
2018-06-25T12:13:49.288Z,22.01
2018-06-25T12:14:49.127Z,22.01
2018-06-25T12:15:49.302Z,21.98
2018-06-25T12:16:49.098Z,22.07
2018-06-25T12:17:49.213Z,22.17
2018-06-25T12:18:49.059Z,22.17
2018-06-25T12:19:49.281Z,22.35
2018-06-25T12:20:49.023Z,22.43
2018-06-25T12:21:49.138Z,22.52
2018-06-25T12:22:49.000Z,22.64
2018-06-25T12:23:49.155Z,22.74
2018-06-25T12:24:48.950Z,22.84
2018-06-25T12:25:49.077Z,22.92
2018-06-25T12:26:48.915Z,22.99
2018-06-25T12:27:49.098Z,23.04
2018-06-25T12:28:48.877Z,23.19
2018-06-25T12:29:48.893Z,23.39
2018-06-25T12:30:48.839Z,23.68
2018-06-25T12:31:48.909Z,23.97
2018-06-25T12:32:48.811Z,24.20
2018-06-25T12:33:48.821Z,24.61
2018-06-25T12:34:48.767Z,24.87
2018-06-25T12:35:48.832Z,25.06
2018-06-25T12:36:48.740Z,25.27
2018-06-25T12:37:48.891Z,25.15
2018-06-25T12:38:48.706Z,25.00
2018-06-25T12:39:48.760Z,24.82
2018-06-25T12:40:48.666Z,24.77
2018-06-25T12:41:48.774Z,24.59
2018-06-25T12:42:48.639Z,24.39
2018-06-25T12:43:48.685Z,24.27
2018-06-25T12:44:48.601Z,24.42
2018-06-25T12:45:48.709Z,24.69
2018-06-25T12:46:48.577Z,24.98
2018-06-25T12:47:48.611Z,25.01
2018-06-25T12:48:48.538Z,24.97
2018-06-25T12:49:48.626Z,25.01
2018-06-25T12:50:48.505Z,24.92
2018-06-25T12:51:48.535Z,24.61